createdAt,value
2019-05-12T00:00:42.867Z,14.80
2019-05-12T00:04:45.535Z,19.33
2019-05-12T00:08:48.725Z,18.57
2019-05-12T00:12:51.374Z,17.90
2019-05-12T00:16:53.836Z,15.70
2019-05-12T00:20:57.922Z,15.07
2019-05-12T00:25:00.373Z,20.67
2019-05-12T00:29:02.761Z,16.30
2019-05-12T00:33:05.222Z,14.17
2019-05-12T00:37:08.284Z,15.40
2019-05-12T00:41:10.899Z,14.57
2019-05-12T00:45:13.348Z,13.87
2019-05-12T00:49:18.458Z,14.83
2019-05-12T00:53:19.892Z,11.40
2019-05-12T00:57:22.180Z,10.53
2019-05-12T01:01:24.895Z,11.13
2019-05-12T01:05:29.109Z,7.70
2019-05-12T01:09:31.247Z,8.27
2019-05-12T01:13:33.545Z,7.60
2019-05-12T01:17:38.378Z,6.10
2019-05-12T01:21:40.033Z,7.33
2019-05-12T01:25:42.528Z,8.17
2019-05-12T01:29:44.875Z,6.00
2019-05-12T01:33:48.608Z,6.67
2019-05-12T01:37:51.113Z,5.50
2019-05-12T01:41:53.599Z,6.50
2019-05-12T01:45:55.867Z,4.93
2019-05-12T01:49:58.480Z,5.40
2019-05-12T01:54:11.024Z,6.60
2019-05-12T01:58:05.047Z,4.37
2019-05-12T02:02:08.588Z,4.40
2019-05-12T02:06:11.392Z,4.43
2019-05-12T02:10:14.032Z,3.53
2019-05-12T02:14:18.248Z,4.43
2019-05-12T02:18:20.506Z,3.43
2019-05-12T02:22:23.118Z,4.47
2019-05-12T02:26:25.614Z,4.57
2019-05-12T02:30:30.306Z,3.07
2019-05-12T02:34:34.750Z,3.23
2019-05-12T02:38:36.139Z,3.90
2019-05-12T02:42:38.755Z,2.80
2019-05-12T02:46:41.331Z,3.33
2019-05-12T02:50:45.223Z,3.20
2019-05-12T02:54:55.663Z,3.90
2019-05-12T02:58:54.351Z,4.83
2019-05-12T03:02:55.831Z,3.50
2019-05-12T03:07:02.088Z,3.43
2019-05-12T03:11:05.715Z,2.83
2019-05-12T03:15:05.951Z,3.50
2019-05-12T03:19:08.507Z,4.63
2019-05-12T03:23:10.873Z,4.23
2019-05-12T03:27:14.600Z,3.50
2019-05-12T03:31:23.183Z,3.10
2019-05-12T03:35:21.143Z,3.00
2019-05-12T03:39:25.056Z,3.70
2019-05-12T03:43:27.335Z,3.70
2019-05-12T03:47:29.577Z,3.73
2019-05-12T03:51:34.752Z,3.70
2019-05-12T03:55:41.005Z,4.70
2019-05-12T03:59:39.780Z,3.63
2019-05-12T04:03:44.808Z,3.77
2019-05-12T04:07:46.127Z,3.13
2019-05-12T04:11:48.509Z,3.00
2019-05-12T04:15:50.945Z,3.00
2019-05-12T04:19:54.985Z,3.50
2019-05-12T04:23:57.518Z,4.60
2019-05-12T04:27:59.857Z,3.80
2019-05-12T04:32:04.867Z,3.40
2019-05-12T04:36:06.015Z,3.20
2019-05-12T04:40:08.415Z,3.27
2019-05-12T04:44:10.682Z,4.20
2019-05-12T04:48:15.517Z,4.13
2019-05-12T04:52:16.946Z,3.87
2019-05-12T04:56:20.552Z,3.13
2019-05-12T05:00:25.452Z,3.70
2019-05-12T05:04:26.946Z,2.90
2019-05-12T05:08:29.388Z,3.13
2019-05-12T05:12:34.324Z,3.43
2019-05-12T05:16:35.773Z,3.70
2019-05-12T05:20:38.356Z,3.37
2019-05-12T05:24:40.736Z,4.13
2019-05-12T05:28:43.493Z,4.60
2019-05-12T05:32:46.590Z,4.23
2019-05-12T05:36:50.953Z,3.63
2019-05-12T05:40:54.159Z,3.40
2019-05-12T05:44:56.709Z,4.07
2019-05-12T05:48:59.040Z,3.80
2019-05-12T05:53:03.551Z,3.77
2019-05-12T05:57:06.224Z,3.20
2019-05-12T06:01:08.830Z,3.93
2019-05-12T06:05:11.137Z,4.03
2019-05-12T06:09:14.116Z,3.27
2019-05-12T06:13:21.032Z,3.30
2019-05-12T06:17:20.510Z,3.37
2019-05-12T06:21:24.148Z,2.90
2019-05-12T06:25:26.839Z,3.30
2019-05-12T06:29:30.530Z,3.97
2019-05-12T06:33:36.121Z,3.50
2019-05-12T06:37:36.697Z,4.70
2019-05-12T06:41:39.058Z,3.80
2019-05-12T06:45:43.298Z,3.37
2019-05-12T06:49:48.758Z,3.37
2019-05-12T06:53:49.303Z,4.00
2019-05-12T06:57:53.889Z,4.57
2019-05-12T07:02:00.379Z,3.57
2019-05-12T07:05:59.288Z,4.27
2019-05-12T07:10:07.983Z,3.43
2019-05-12T07:14:13.027Z,3.40
2019-05-12T07:18:10.249Z,3.40
2019-05-12T07:22:22.365Z,3.70
2019-05-12T07:26:19.312Z,3.30
2019-05-12T07:30:20.402Z,2.90
2019-05-12T07:34:24.057Z,3.10
2019-05-12T07:38:26.662Z,2.63
2019-05-12T07:42:31.477Z,3.80
2019-05-12T07:46:34.278Z,3.50
2019-05-12T07:50:36.654Z,3.33
2019-05-12T07:54:39.600Z,3.10
2019-05-12T07:58:47.475Z,3.87
2019-05-12T08:02:46.018Z,3.27
2019-05-12T08:06:48.357Z,3.00
2019-05-12T08:10:53.515Z,4.10
2019-05-12T08:14:59.237Z,4.13
2019-05-12T08:18:58.525Z,3.97
2019-05-12T08:23:07.883Z,3.30
2019-05-12T08:27:06.551Z,3.17
2019-05-12T08:31:08.667Z,2.77
2019-05-12T08:35:13.728Z,3.63
2019-05-12T08:39:21.358Z,3.70
2019-05-12T08:43:18.762Z,2.73
2019-05-12T08:47:23.672Z,3.10
2019-05-12T08:51:25.148Z,3.30
2019-05-12T08:55:31.574Z,3.60
2019-05-12T08:59:31.409Z,4.83
2019-05-12T09:03:33.717Z,3.33
2019-05-12T09:07:39.787Z,4.47
2019-05-12T09:11:40.009Z,5.57
2019-05-12T09:15:43.764Z,4.77
2019-05-12T09:19:46.235Z,4.90
2019-05-12T09:23:48.648Z,5.03
2019-05-12T09:27:50.964Z,5.50
2019-05-12T09:31:53.422Z,5.50
2019-05-12T09:35:55.598Z,7.10
2019-05-12T09:39:58.041Z,5.30
2019-05-12T09:44:01.778Z,5.70
2019-05-12T09:48:08.743Z,8.00
2019-05-12T09:52:07.845Z,6.90
2019-05-12T09:56:10.502Z,5.07
2019-05-12T10:00:13.695Z,4.90
2019-05-12T10:04:19.439Z,5.13
2019-05-12T10:08:20.244Z,5.00
2019-05-12T10:12:22.660Z,4.63
2019-05-12T10:16:25.025Z,5.47
2019-05-12T10:20:29.140Z,4.80
2019-05-12T10:24:32.469Z,5.40
2019-05-12T10:28:35.216Z,5.00
2019-05-12T10:32:37.459Z,6.70
2019-05-12T10:36:44.876Z,6.80
2019-05-12T10:40:44.390Z,6.17
2019-05-12T10:44:47.495Z,6.97
2019-05-12T10:48:50.010Z,7.70
2019-05-12T10:52:53.658Z,6.93
2019-05-12T10:56:56.202Z,7.60
2019-05-12T11:01:05.219Z,5.60
2019-05-12T11:05:02.367Z,7.20
2019-05-12T11:09:04.795Z,10.07
2019-05-12T11:13:08.746Z,10.40
2019-05-12T11:17:11.136Z,63.50
2019-05-12T11:21:15.405Z,32.57
2019-05-12T11:25:17.864Z,32.17
2019-05-12T11:29:20.287Z,32.67
2019-05-12T11:33:23.806Z,30.40
2019-05-12T11:37:28.966Z,22.23
2019-05-12T11:41:30.353Z,22.43
2019-05-12T11:45:33.561Z,21.40
2019-05-12T11:49:36.274Z,21.80
2019-05-12T11:53:38.479Z,19.63
2019-05-12T11:57:40.859Z,18.13
2019-05-12T12:01:47.411Z,18.17
2019-05-12T12:05:47.056Z,28.10
2019-05-12T12:09:54.349Z,18.07
2019-05-12T12:13:53.561Z,19.93
2019-05-12T12:17:56.134Z,13.40
2019-05-12T12:21:58.724Z,15.33
2019-05-12T12:26:01.148Z,16.97
2019-05-12T12:30:15.697Z,92.43
2019-05-12T12:34:07.511Z,69.77
2019-05-12T12:38:09.838Z,55.17
2019-05-12T12:42:14.009Z,37.93
2019-05-12T12:46:17.975Z,31.50
2019-05-12T12:50:25.029Z,38.23
2019-05-12T12:54:24.363Z,38.83
2019-05-12T12:58:31.118Z,28.90
2019-05-12T13:02:30.639Z,29.87
2019-05-12T13:06:34.563Z,25.90
2019-05-12T13:10:40.425Z,18.80
2019-05-12T13:14:40.656Z,28.83
2019-05-12T13:18:43.491Z,22.30
2019-05-12T13:22:46.097Z,24.93
2019-05-12T13:26:48.745Z,28.33
2019-05-12T13:30:53.998Z,21.27
2019-05-12T13:34:55.084Z,20.43
2019-05-12T13:38:57.627Z,24.40
2019-05-12T13:43:00.309Z,20.30
2019-05-12T13:47:03.399Z,22.77
2019-05-12T13:51:12.374Z,23.43
2019-05-12T13:55:09.814Z,12.30
2019-05-12T13:59:16.860Z,16.90
2019-05-12T14:03:15.910Z,52.27
2019-05-12T14:07:20.290Z,37.97
2019-05-12T14:11:23.906Z,50.50
2019-05-12T14:15:26.011Z,44.77
2019-05-12T14:19:30.395Z,50.30
2019-05-12T14:23:34.175Z,48.27
2019-05-12T14:27:35.962Z,54.43
2019-05-12T14:31:45.382Z,44.00
2019-05-12T14:35:45.405Z,57.60
2019-05-12T14:39:50.105Z,63.03
2019-05-12T14:43:53.556Z,46.83
2019-05-12T14:47:54.212Z,45.77
2019-05-12T14:51:56.430Z,36.27
2019-05-12T14:55:59.183Z,38.00
2019-05-12T15:00:03.808Z,45.57
2019-05-12T15:04:05.398Z,38.80
2019-05-12T15:08:07.734Z,33.17
2019-05-12T15:12:10.216Z,34.40
2019-05-12T15:16:12.542Z,35.63
2019-05-12T15:20:15.101Z,30.57
2019-05-12T15:24:18.945Z,28.83
2019-05-12T15:28:23.631Z,29.70
2019-05-12T15:32:25.692Z,28.67
2019-05-12T15:36:28.337Z,34.60
2019-05-12T15:40:30.770Z,31.47
2019-05-12T15:44:36.292Z,27.00
2019-05-12T15:48:36.969Z,28.20
2019-05-12T15:52:42.433Z,34.13
2019-05-12T15:56:43.326Z,29.50
2019-05-12T16:00:45.839Z,31.43
2019-05-12T16:04:48.679Z,31.40
2019-05-12T16:08:53.408Z,26.87
2019-05-12T16:12:54.901Z,27.00
2019-05-12T16:16:57.388Z,26.03
2019-05-12T16:21:05.222Z,32.00
2019-05-12T16:25:06.988Z,28.97
2019-05-12T16:29:09.345Z,54.90
2019-05-12T16:33:20.304Z,38.10
2019-05-12T16:37:15.709Z,82.10
2019-05-12T16:41:19.840Z,48.97
2019-05-12T16:45:23.489Z,42.30
2019-05-12T16:49:33.149Z,38.00
2019-05-12T16:53:30.101Z,38.43
2019-05-12T16:57:33.665Z,69.47
2019-05-12T17:01:36.144Z,34.23
2019-05-12T17:05:39.101Z,34.45
2019-05-12T17:09:43.364Z,38.27
2019-05-12T17:13:47.426Z,34.10
2019-05-12T17:17:50.688Z,35.50
2019-05-12T17:21:57.580Z,35.33
2019-05-12T17:25:57.447Z,26.67
2019-05-12T17:29:59.979Z,32.10
2019-05-12T17:34:06.653Z,367.68
2019-05-12T17:38:06.074Z,1539.27
2019-05-12T17:42:14.850Z,1554.67
2019-05-12T17:46:17.781Z,758.63
2019-05-12T17:50:16.189Z,1132.40
2019-05-12T17:54:23.457Z,402.33
2019-05-12T17:58:24.221Z,232.00
2019-05-12T18:02:26.824Z,181.67
2019-05-12T18:06:31.000Z,153.90
2019-05-12T18:10:37.792Z,119.23
2019-05-12T18:14:45.604Z,105.70
2019-05-12T18:18:40.647Z,90.83
2019-05-12T18:22:44.953Z,79.07
2019-05-12T18:26:55.137Z,78.20
2019-05-12T18:30:51.049Z,74.20
2019-05-12T18:34:53.924Z,72.77
2019-05-12T18:39:05.588Z,63.37
2019-05-12T18:43:00.246Z,60.20
2019-05-12T18:47:04.304Z,61.93
2019-05-12T18:51:12.063Z,48.00
2019-05-12T18:55:10.387Z,54.57
2019-05-12T18:59:16.086Z,49.37
2019-05-12T19:03:16.924Z,41.53
2019-05-12T19:07:19.463Z,43.60
2019-05-12T19:11:23.712Z,44.87
2019-05-12T19:15:25.616Z,45.00
2019-05-12T19:19:28.122Z,48.50
2019-05-12T19:23:34.995Z,70.10
2019-05-12T19:27:35.130Z,60.77
2019-05-12T19:31:43.566Z,47.63
2019-05-12T19:35:42.421Z,42.17
2019-05-12T19:39:44.784Z,42.27
2019-05-12T19:43:49.504Z,36.13
2019-05-12T19:47:53.398Z,36.60
2019-05-12T19:51:54.755Z,29.40
2019-05-12T19:55:57.232Z,32.40
2019-05-12T19:59:59.643Z,28.47
2019-05-12T20:04:03.614Z,28.63
2019-05-12T20:08:05.803Z,27.73
2019-05-12T20:12:15.616Z,31.50
2019-05-12T20:16:21.362Z,26.60
2019-05-12T20:20:17.880Z,31.97
2019-05-12T20:24:19.817Z,21.83
2019-05-12T20:28:24.201Z,28.40
2019-05-12T20:32:26.312Z,23.73
2019-05-12T20:36:28.710Z,19.07
2019-05-12T20:40:32.155Z,19.83
2019-05-12T20:44:35.048Z,18.27
2019-05-12T20:48:37.449Z,21.43
2019-05-12T20:52:45.059Z,20.20
2019-05-12T20:56:43.661Z,17.93
2019-05-12T21:00:50.153Z,17.60
2019-05-12T21:05:00.524Z,17.73
2019-05-12T21:08:56.828Z,16.20
2019-05-12T21:12:59.543Z,18.03
2019-05-12T21:17:03.076Z,16.53
2019-05-12T21:21:05.783Z,18.07
2019-05-12T21:25:11.145Z,15.80
2019-05-12T21:29:13.755Z,15.53
2019-05-12T21:33:16.282Z,15.20
2019-05-12T21:37:18.667Z,15.53
2019-05-12T21:41:22.493Z,15.20
2019-05-12T21:45:26.547Z,13.50
2019-05-12T21:49:28.868Z,14.80
2019-05-12T21:53:31.155Z,14.17
2019-05-12T21:57:34.558Z,13.87
2019-05-12T22:01:43.171Z,13.40
2019-05-12T22:05:53.036Z,13.00
2019-05-12T22:09:46.854Z,12.10
2019-05-12T22:13:56.059Z,15.50
2019-05-12T22:17:54.275Z,14.70
2019-05-12T22:21:56.754Z,12.67
2019-05-12T22:26:00.258Z,11.63
2019-05-12T22:30:04.452Z,11.80
2019-05-12T22:34:06.773Z,13.90
2019-05-12T22:38:15.396Z,14.07
2019-05-12T22:42:20.155Z,13.20
2019-05-12T22:46:23.254Z,12.00
2019-05-12T22:50:20.932Z,12.70
2019-05-12T22:54:24.547Z,12.23
2019-05-12T22:58:27.096Z,10.90
2019-05-12T23:02:30.209Z,13.00
2019-05-12T23:06:33.556Z,12.17
2019-05-12T23:10:45.112Z,131.67
2019-05-12T23:14:40.223Z,17.10
2019-05-12T23:18:44.444Z,18.33
2019-05-12T23:22:46.519Z,15.93
2019-05-12T23:26:49.167Z,13.30
2019-05-12T23:30:53.393Z,36.07
2019-05-12T23:34:58.593Z,33.27
2019-05-12T23:39:00.685Z,25.67
2019-05-12T23:43:04.117Z,28.10
2019-05-12T23:47:06.936Z,26.53
2019-05-12T23:51:09.605Z,21.93
2019-05-12T23:55:13.842Z,19.50
2019-05-12T23:59:15.746Z,19.23
